createdAt,value
2018-07-20T00:01:43.662Z,8.40
2018-07-20T00:04:12.651Z,10.13
2018-07-20T00:06:41.654Z,15.37
2018-07-20T00:09:10.786Z,9.57
2018-07-20T00:11:39.730Z,10.43
2018-07-20T00:14:08.650Z,9.33
2018-07-20T00:16:37.629Z,9.43
2018-07-20T00:19:06.654Z,11.47
2018-07-20T00:21:35.630Z,11.97
2018-07-20T00:24:04.570Z,13.67
2018-07-20T00:26:33.584Z,9.43
2018-07-20T00:29:02.541Z,12.50
2018-07-20T00:31:31.474Z,10.43
2018-07-20T00:34:01.187Z,12.20
2018-07-20T00:36:30.190Z,10.43
2018-07-20T00:38:59.192Z,15.83
2018-07-20T00:41:28.174Z,9.80
2018-07-20T00:43:57.730Z,10.43
2018-07-20T00:46:26.652Z,10.30
2018-07-20T00:48:55.562Z,13.40
2018-07-20T00:51:24.544Z,9.90
2018-07-20T00:53:53.578Z,11.33
2018-07-20T00:56:22.551Z,9.57
2018-07-20T00:58:51.658Z,10.50
2018-07-20T01:01:20.887Z,10.53
2018-07-20T01:03:50.580Z,13.63
2018-07-20T01:06:19.551Z,9.70
2018-07-20T01:08:48.449Z,10.17
2018-07-20T01:11:17.434Z,9.93
2018-07-20T01:13:46.324Z,11.63
2018-07-20T01:16:15.990Z,12.97
2018-07-20T01:18:44.978Z,12.17
2018-07-20T01:21:13.914Z,12.07
2018-07-20T01:23:42.831Z,11.83
2018-07-20T01:26:11.792Z,10.43
2018-07-20T01:28:40.703Z,9.93
2018-07-20T01:31:09.641Z,10.30
2018-07-20T01:33:38.550Z,10.80
2018-07-20T01:36:07.474Z,11.00
2018-07-20T01:38:36.450Z,13.33
2018-07-20T01:41:05.572Z,10.10
2018-07-20T01:43:34.522Z,10.57
2018-07-20T01:46:03.611Z,9.90
2018-07-20T01:48:32.722Z,12.33
2018-07-20T01:51:01.857Z,14.23
2018-07-20T01:53:30.788Z,11.83
2018-07-20T01:55:59.784Z,11.53
2018-07-20T01:58:28.683Z,11.97
2018-07-20T02:00:58.082Z,11.93
2018-07-20T02:03:27.014Z,11.93
2018-07-20T02:05:58.632Z,11.67
2018-07-20T02:08:27.542Z,11.87
2018-07-20T02:11:00.934Z,11.03
2018-07-20T02:13:29.914Z,12.27
2018-07-20T02:15:59.266Z,13.97
2018-07-20T02:18:28.185Z,13.67
2018-07-20T02:20:57.195Z,12.80
2018-07-20T02:23:26.090Z,13.10
2018-07-20T02:25:55.027Z,14.70
2018-07-20T02:28:23.995Z,12.67
2018-07-20T02:30:52.955Z,15.20
2018-07-20T02:33:21.897Z,11.73
2018-07-20T02:35:50.822Z,14.13
2018-07-20T02:38:20.152Z,12.47
2018-07-20T02:40:49.576Z,13.07
2018-07-20T02:43:18.590Z,16.33
2018-07-20T02:45:53.001Z,12.77
2018-07-20T02:48:21.960Z,15.03
2018-07-20T02:50:50.912Z,14.70
2018-07-20T02:53:19.870Z,14.73
2018-07-20T02:55:48.810Z,15.60
2018-07-20T02:58:18.368Z,14.53
2018-07-20T03:00:47.379Z,15.90
2018-07-20T03:03:16.317Z,15.33
2018-07-20T03:05:45.445Z,14.50
2018-07-20T03:08:14.383Z,14.30
2018-07-20T03:10:43.305Z,15.23
2018-07-20T03:13:12.215Z,15.33
2018-07-20T03:15:41.151Z,15.20
2018-07-20T03:18:10.762Z,14.30
2018-07-20T03:20:39.706Z,16.60
2018-07-20T03:23:09.725Z,14.57
2018-07-20T03:25:38.618Z,15.33
2018-07-20T03:28:07.561Z,14.80
2018-07-20T03:30:36.566Z,16.70
2018-07-20T03:33:05.510Z,17.47
2018-07-20T03:35:34.717Z,13.63
2018-07-20T03:38:03.686Z,15.93
2018-07-20T03:40:32.917Z,17.10
2018-07-20T03:43:02.073Z,14.53
2018-07-20T03:45:31.971Z,14.40
2018-07-20T03:48:02.049Z,14.73
2018-07-20T03:50:31.117Z,14.73
2018-07-20T03:53:00.191Z,16.23
2018-07-20T03:55:29.183Z,14.87
2018-07-20T03:57:58.201Z,15.93
2018-07-20T04:00:27.183Z,15.00
2018-07-20T04:02:56.087Z,15.90
2018-07-20T04:05:24.983Z,20.00
2018-07-20T04:07:53.893Z,14.47
2018-07-20T04:10:22.840Z,16.57
2018-07-20T04:12:52.239Z,15.80
2018-07-20T04:15:21.174Z,13.90
2018-07-20T04:17:50.102Z,15.23
2018-07-20T04:20:19.035Z,14.23
2018-07-20T04:22:47.976Z,15.50
2018-07-20T04:25:16.930Z,14.93
2018-07-20T04:27:46.385Z,15.43
2018-07-20T04:30:15.931Z,14.70
2018-07-20T04:32:50.331Z,15.13
2018-07-20T04:35:19.309Z,13.40
2018-07-20T04:37:48.245Z,14.20
2018-07-20T04:40:17.221Z,15.30
2018-07-20T04:42:48.167Z,13.40
2018-07-20T04:45:17.157Z,14.07
2018-07-20T04:47:46.121Z,12.73
2018-07-20T04:50:15.054Z,14.47
2018-07-20T04:52:44.079Z,12.57
2018-07-20T04:55:13.135Z,18.93
2018-07-20T04:57:42.051Z,16.80
2018-07-20T05:00:11.087Z,14.27
2018-07-20T05:02:39.977Z,16.43
2018-07-20T05:05:08.909Z,12.27
2018-07-20T05:07:38.316Z,13.43
2018-07-20T05:10:07.331Z,11.97
2018-07-20T05:12:36.339Z,13.37
2018-07-20T05:15:05.355Z,12.40
2018-07-20T05:17:34.815Z,11.83
2018-07-20T05:20:03.805Z,13.93
2018-07-20T05:22:32.739Z,12.07
2018-07-20T05:25:01.740Z,13.47
2018-07-20T05:27:30.711Z,13.37
2018-07-20T05:29:59.635Z,12.17
2018-07-20T05:32:28.593Z,13.73
2018-07-20T05:34:57.517Z,12.77
2018-07-20T05:37:26.597Z,14.07
2018-07-20T05:39:55.607Z,14.57
2018-07-20T05:42:24.559Z,12.67
2018-07-20T05:44:54.107Z,11.63
2018-07-20T05:47:23.101Z,11.70
2018-07-20T05:49:52.085Z,10.57
2018-07-20T05:52:21.018Z,14.97
2018-07-20T05:54:49.962Z,13.83
2018-07-20T05:57:18.921Z,17.13
2018-07-20T05:59:47.923Z,13.10
2018-07-20T06:02:17.111Z,15.60
2018-07-20T06:04:46.497Z,15.63
2018-07-20T06:07:15.518Z,14.07
2018-07-20T06:09:44.421Z,12.30
2018-07-20T06:12:13.459Z,14.97
2018-07-20T06:14:42.371Z,15.30
2018-07-20T06:17:11.389Z,14.63
2018-07-20T06:19:40.384Z,12.60
2018-07-20T06:22:09.327Z,13.27
2018-07-20T06:24:38.241Z,13.40
2018-07-20T06:27:07.173Z,20.07
2018-07-20T06:29:36.198Z,14.10
2018-07-20T06:32:05.101Z,14.80
2018-07-20T06:34:34.055Z,13.27
2018-07-20T06:37:03.421Z,15.07
2018-07-20T06:39:32.467Z,14.00
2018-07-20T06:42:01.390Z,15.80
2018-07-20T06:44:30.363Z,14.23
2018-07-20T06:46:59.275Z,16.80
2018-07-20T06:49:28.239Z,16.60
2018-07-20T06:51:57.211Z,13.63
2018-07-20T06:54:26.161Z,13.23
2018-07-20T06:56:55.201Z,16.40
2018-07-20T06:59:24.925Z,13.33
2018-07-20T07:01:53.915Z,12.93
2018-07-20T07:04:22.893Z,14.13
2018-07-20T07:06:51.847Z,14.30
2018-07-20T07:09:21.806Z,16.17
2018-07-20T07:11:50.679Z,16.00
2018-07-20T07:14:19.583Z,12.87
2018-07-20T07:16:48.483Z,16.73
2018-07-20T07:19:17.419Z,17.33
2018-07-20T07:21:47.308Z,11.87
2018-07-20T07:24:16.254Z,12.33
2018-07-20T07:26:45.217Z,12.83
2018-07-20T07:29:14.289Z,13.13
2018-07-20T07:31:48.817Z,12.10
2018-07-20T07:34:17.785Z,12.40
2018-07-20T07:36:46.739Z,12.97
2018-07-20T07:39:15.695Z,11.07
2018-07-20T07:41:44.717Z,13.43
2018-07-20T07:44:13.611Z,16.17
2018-07-20T07:46:43.091Z,10.83
2018-07-20T07:49:12.539Z,13.10
2018-07-20T07:51:41.507Z,12.87
2018-07-20T07:54:10.419Z,11.97
2018-07-20T07:56:39.348Z,11.53
2018-07-20T07:59:08.359Z,11.10
2018-07-20T08:01:37.327Z,11.03
2018-07-20T08:04:06.605Z,11.30
2018-07-20T08:06:35.647Z,9.97
2018-07-20T08:09:08.643Z,10.80
2018-07-20T08:11:38.196Z,9.50
2018-07-20T08:14:07.273Z,8.10
2018-07-20T08:16:36.430Z,8.47
2018-07-20T08:19:05.626Z,9.13
2018-07-20T08:21:35.048Z,8.77
2018-07-20T08:24:04.001Z,9.53
2018-07-20T08:26:33.052Z,9.43
2018-07-20T08:29:02.012Z,10.67
2018-07-20T08:31:31.135Z,6.77
2018-07-20T08:34:00.094Z,8.50
2018-07-20T08:36:29.105Z,9.63
2018-07-20T08:38:58.085Z,6.00
2018-07-20T08:41:27.052Z,6.33
2018-07-20T08:43:56.059Z,5.30
2018-07-20T08:46:25.069Z,8.60
2018-07-20T08:48:54.036Z,7.17
2018-07-20T08:51:23.008Z,8.43
2018-07-20T08:53:52.027Z,6.03
2018-07-20T08:56:21.887Z,5.80
2018-07-20T08:58:50.888Z,6.80
2018-07-20T09:01:19.812Z,8.57
2018-07-20T09:03:48.768Z,4.70
2018-07-20T09:06:17.718Z,7.53
2018-07-20T09:08:46.679Z,4.30
2018-07-20T09:11:15.676Z,5.63
2018-07-20T09:13:44.820Z,5.40
2018-07-20T09:16:13.611Z,4.43
2018-07-20T09:18:42.569Z,4.93
2018-07-20T09:21:11.556Z,5.20
2018-07-20T09:23:40.528Z,4.60
2018-07-20T09:26:09.536Z,6.67
2018-07-20T09:28:38.499Z,5.57
2018-07-20T09:31:07.569Z,6.63
2018-07-20T09:33:36.528Z,5.70
2018-07-20T09:36:05.596Z,6.33
2018-07-20T09:38:34.692Z,5.80
2018-07-20T09:41:03.698Z,3.87
2018-07-20T09:43:32.676Z,6.13
2018-07-20T09:46:01.763Z,7.40
2018-07-20T09:48:30.648Z,5.17
2018-07-20T09:50:59.588Z,6.07
2018-07-20T09:53:28.485Z,5.60
2018-07-20T09:55:57.529Z,4.70
2018-07-20T09:58:26.520Z,5.13
2018-07-20T10:00:55.442Z,5.67
2018-07-20T10:03:24.400Z,4.77
2018-07-20T10:05:53.926Z,10.30
2018-07-20T10:08:22.900Z,4.23
2018-07-20T10:10:52.567Z,4.33
2018-07-20T10:13:22.337Z,7.10
2018-07-20T10:15:51.297Z,5.73
2018-07-20T10:18:21.239Z,4.63
2018-07-20T10:20:50.194Z,7.03
2018-07-20T10:23:19.157Z,5.23
2018-07-20T10:25:48.159Z,6.67
2018-07-20T10:28:17.068Z,5.27
2018-07-20T10:30:46.618Z,6.20
2018-07-20T10:33:15.508Z,5.70
2018-07-20T10:35:44.480Z,6.63
2018-07-20T10:38:13.424Z,6.17
2018-07-20T10:40:42.349Z,4.17
2018-07-20T10:43:11.283Z,4.40
2018-07-20T10:45:40.241Z,4.17
2018-07-20T10:48:10.188Z,4.37
2018-07-20T10:50:39.168Z,5.27
2018-07-20T10:53:08.089Z,5.40
2018-07-20T10:55:37.021Z,6.13
2018-07-20T10:58:06.079Z,7.67
2018-07-20T11:00:35.070Z,7.73
2018-07-20T11:03:04.174Z,6.17
2018-07-20T11:05:33.122Z,6.83
2018-07-20T11:08:03.084Z,7.27
2018-07-20T11:10:32.073Z,4.60
2018-07-20T11:13:01.001Z,5.10
2018-07-20T11:15:30.025Z,4.40
2018-07-20T11:17:58.986Z,7.53
2018-07-20T11:20:28.011Z,5.87
2018-07-20T11:22:56.894Z,6.63
2018-07-20T11:25:25.823Z,7.43
2018-07-20T11:27:54.881Z,4.93
2018-07-20T11:30:24.492Z,6.50
2018-07-20T11:32:53.528Z,4.20
2018-07-20T11:35:22.468Z,6.40
2018-07-20T11:37:51.448Z,5.83
2018-07-20T11:40:20.448Z,4.13
2018-07-20T11:42:49.444Z,4.17
2018-07-20T11:45:18.425Z,4.60
2018-07-20T11:47:47.484Z,4.70
2018-07-20T11:50:16.453Z,3.57
2018-07-20T11:52:45.394Z,6.37
2018-07-20T11:55:14.352Z,4.80
2018-07-20T11:57:43.346Z,4.93
2018-07-20T12:00:12.445Z,6.23
2018-07-20T12:02:41.374Z,8.00
2018-07-20T12:05:10.296Z,3.70
2018-07-20T12:07:40.804Z,4.57
2018-07-20T12:10:09.755Z,5.73
2018-07-20T12:12:38.808Z,4.63
2018-07-20T12:15:07.858Z,4.30
2018-07-20T12:17:36.938Z,5.17
2018-07-20T12:20:05.878Z,5.27
2018-07-20T12:22:35.867Z,6.53
2018-07-20T12:25:05.012Z,4.60
2018-07-20T12:27:33.974Z,7.50
2018-07-20T12:30:03.007Z,6.10
2018-07-20T12:32:31.916Z,6.30
2018-07-20T12:35:00.912Z,6.27
2018-07-20T12:37:29.937Z,7.20
2018-07-20T12:39:58.972Z,4.20
2018-07-20T12:42:27.995Z,7.03
2018-07-20T12:44:57.004Z,5.20
2018-07-20T12:47:25.934Z,5.73
2018-07-20T12:49:54.996Z,4.60
2018-07-20T12:52:23.959Z,3.70
2018-07-20T12:54:52.915Z,7.73
2018-07-20T12:57:21.872Z,5.33
2018-07-20T12:59:50.855Z,4.50
2018-07-20T13:02:19.954Z,5.27
2018-07-20T13:04:48.928Z,4.40
2018-07-20T13:07:17.889Z,8.67
2018-07-20T13:09:47.629Z,4.07
2018-07-20T13:12:16.700Z,4.30
2018-07-20T13:14:45.661Z,4.60
2018-07-20T13:17:14.650Z,4.60
2018-07-20T13:19:43.594Z,8.10
2018-07-20T13:22:12.584Z,5.33
2018-07-20T13:24:41.527Z,6.53
2018-07-20T13:27:10.586Z,4.97
2018-07-20T13:29:40.298Z,6.80
2018-07-20T13:32:09.271Z,5.13
2018-07-20T13:34:38.228Z,5.40
2018-07-20T13:37:07.200Z,8.17
2018-07-20T13:39:36.213Z,5.17
2018-07-20T13:42:05.366Z,5.40
2018-07-20T13:44:34.326Z,7.00
2018-07-20T13:47:03.309Z,4.97
2018-07-20T13:49:32.274Z,5.40
2018-07-20T13:52:01.302Z,7.53
2018-07-20T13:54:30.232Z,4.80
2018-07-20T13:56:59.200Z,6.57
2018-07-20T13:59:28.147Z,8.37
2018-07-20T14:01:57.342Z,4.87
2018-07-20T14:04:26.352Z,4.30
2018-07-20T14:06:55.569Z,7.90
2018-07-20T14:09:24.773Z,9.73
2018-07-20T14:11:53.741Z,4.73
2018-07-20T14:14:22.646Z,8.10
2018-07-20T14:16:51.714Z,5.37
2018-07-20T14:19:21.302Z,5.37
2018-07-20T14:21:56.068Z,5.00
2018-07-20T14:24:30.700Z,6.90
2018-07-20T14:26:59.671Z,4.47
2018-07-20T14:29:28.643Z,4.20
2018-07-20T14:31:57.720Z,5.07
2018-07-20T14:34:26.650Z,4.13
2018-07-20T14:36:55.680Z,4.03
2018-07-20T14:39:24.720Z,5.20
2018-07-20T14:41:53.948Z,4.17
2018-07-20T14:44:22.970Z,5.60
2018-07-20T14:46:51.953Z,3.30
2018-07-20T14:49:20.919Z,3.80
2018-07-20T14:51:49.865Z,4.90
2018-07-20T14:54:18.834Z,5.13
2018-07-20T14:56:47.840Z,4.00
2018-07-20T14:59:16.868Z,5.53
2018-07-20T15:01:45.881Z,6.40
2018-07-20T15:04:15.015Z,5.87
2018-07-20T15:06:44.830Z,4.33
2018-07-20T15:09:13.864Z,5.80
2018-07-20T15:11:42.808Z,4.67
2018-07-20T15:14:11.821Z,5.83
2018-07-20T15:16:40.868Z,5.03
2018-07-20T15:19:09.838Z,5.53
2018-07-20T15:21:38.788Z,5.27
2018-07-20T15:24:07.760Z,5.77
2018-07-20T15:26:36.731Z,4.47
2018-07-20T15:29:05.776Z,5.47
2018-07-20T15:31:34.733Z,5.00
2018-07-20T15:34:03.862Z,8.23
2018-07-20T15:36:32.859Z,5.50
2018-07-20T15:39:01.832Z,5.00
2018-07-20T15:41:30.804Z,6.87
2018-07-20T15:43:59.831Z,4.60
2018-07-20T15:46:28.879Z,5.57
2018-07-20T15:48:58.561Z,5.37
2018-07-20T15:51:55.487Z,3.90
2018-07-20T15:53:56.535Z,5.63
2018-07-20T15:56:25.599Z,3.77
2018-07-20T15:58:54.619Z,3.87
2018-07-20T16:01:23.601Z,4.40
2018-07-20T16:03:52.596Z,4.93
2018-07-20T16:06:21.689Z,4.77
2018-07-20T16:08:50.591Z,4.33
2018-07-20T16:11:25.266Z,4.60
2018-07-20T16:13:54.260Z,3.60
2018-07-20T16:16:23.247Z,3.83
2018-07-20T16:18:52.277Z,3.20
2018-07-20T16:21:21.305Z,3.20
2018-07-20T16:23:50.277Z,3.60
2018-07-20T16:26:19.365Z,5.00
2018-07-20T16:28:48.235Z,4.57
2018-07-20T16:31:17.233Z,3.93
2018-07-20T16:33:46.155Z,3.20
2018-07-20T16:36:15.171Z,3.60
2018-07-20T16:38:45.021Z,3.57
2018-07-20T16:41:14.056Z,4.53
2018-07-20T18:18:03.957Z,4.30
2018-07-20T18:20:32.980Z,4.30
2018-07-20T18:23:01.939Z,3.03
2018-07-20T18:25:31.112Z,5.00
2018-07-20T18:28:00.138Z,4.87
2018-07-20T18:30:29.083Z,6.07
2018-07-20T18:32:58.024Z,3.87
2018-07-20T18:35:27.031Z,3.73
2018-07-20T18:37:55.966Z,6.33
2018-07-20T18:40:25.953Z,4.73
2018-07-20T18:42:54.945Z,4.30
2018-07-20T18:45:23.940Z,4.43
2018-07-20T18:48:00.380Z,4.27
2018-07-20T18:50:29.451Z,3.13
2018-07-20T18:52:59.255Z,3.77
2018-07-20T18:55:28.139Z,3.13
2018-07-20T18:57:57.092Z,8.50
2018-07-20T19:00:25.993Z,3.13
2018-07-20T19:02:55.090Z,4.63
2018-07-20T19:05:24.433Z,4.27
2018-07-20T19:07:53.339Z,3.17
2018-07-20T19:10:22.793Z,5.57
2018-07-20T19:12:51.789Z,3.40
2018-07-20T19:15:20.825Z,4.17
2018-07-20T19:17:49.697Z,3.23
2018-07-20T19:20:18.653Z,3.67
2018-07-20T19:22:54.405Z,3.07
2018-07-20T19:25:28.876Z,4.40
2018-07-20T19:27:57.816Z,5.27
2018-07-20T19:30:26.748Z,3.03
2018-07-20T19:32:55.655Z,4.27
2018-07-20T19:35:25.077Z,3.33
2018-07-20T19:37:54.183Z,3.53
2018-07-20T19:40:23.188Z,2.93
2018-07-20T19:42:52.112Z,4.37
2018-07-20T19:45:21.011Z,2.60
2018-07-20T19:47:50.195Z,2.63
2018-07-20T19:50:19.202Z,2.87
2018-07-20T19:52:48.151Z,3.17
2018-07-20T19:55:17.092Z,3.83
2018-07-20T19:57:46.015Z,2.73
2018-07-20T20:00:15.025Z,4.30
2018-07-20T20:02:47.476Z,3.43
2018-07-20T20:05:16.567Z,3.20
2018-07-20T20:07:45.539Z,2.40
2018-07-20T20:10:14.409Z,4.70
2018-07-20T20:12:43.365Z,2.73
2018-07-20T20:15:12.350Z,2.73
2018-07-20T20:17:41.211Z,2.70
2018-07-20T20:20:12.256Z,3.43
2018-07-20T20:22:41.521Z,4.57
2018-07-20T20:25:10.530Z,3.10
2018-07-20T20:27:39.544Z,2.10
2018-07-20T20:30:08.530Z,2.37
2018-07-20T20:32:39.197Z,2.30
2018-07-20T20:35:08.178Z,2.63
2018-07-20T20:37:37.119Z,4.30
2018-07-20T20:40:07.283Z,2.83
2018-07-20T20:42:36.268Z,3.63
2018-07-20T20:45:06.295Z,2.70
2018-07-20T20:47:35.238Z,4.90
2018-07-20T20:50:04.913Z,3.30
2018-07-20T20:52:34.715Z,5.13
2018-07-20T20:55:03.943Z,2.50
2018-07-20T20:57:32.885Z,3.40
2018-07-20T21:00:01.886Z,3.00
2018-07-20T21:02:30.881Z,2.97
2018-07-20T21:04:59.809Z,4.43
2018-07-20T21:07:29.732Z,2.90
2018-07-20T21:09:58.646Z,6.20
2018-07-20T21:12:27.629Z,4.43
2018-07-20T21:14:56.596Z,2.73
2018-07-20T21:17:25.580Z,3.17
2018-07-20T21:19:54.616Z,2.97
2018-07-20T21:22:23.659Z,2.53
2018-07-20T21:24:52.651Z,3.67
2018-07-20T21:27:21.599Z,3.33
2018-07-20T21:29:51.309Z,2.80
2018-07-20T21:32:20.274Z,4.07
2018-07-20T21:34:49.249Z,3.10
2018-07-20T21:37:18.202Z,3.60
2018-07-20T21:39:47.207Z,2.90
2018-07-20T21:42:16.139Z,2.83
2018-07-20T21:44:45.182Z,3.03
2018-07-20T21:47:14.123Z,3.93
2018-07-20T21:49:43.063Z,3.30
2018-07-20T21:52:12.012Z,4.27
2018-07-20T21:54:40.983Z,3.37
2018-07-20T21:57:09.920Z,4.60
2018-07-20T21:59:38.899Z,5.43
2018-07-20T22:02:07.838Z,3.83
2018-07-20T22:04:37.020Z,3.37
2018-07-20T22:07:05.987Z,5.80
2018-07-20T22:09:34.961Z,5.57
2018-07-20T22:12:03.932Z,4.03
2018-07-20T22:14:32.936Z,4.13
2018-07-20T22:17:01.884Z,4.57
2018-07-20T22:19:30.859Z,3.03
2018-07-20T22:21:59.905Z,5.77
2018-07-20T22:24:28.863Z,4.30
2018-07-20T22:26:57.771Z,3.20
2018-07-20T22:29:26.790Z,6.40
2018-07-20T22:31:55.742Z,6.37
2018-07-20T22:34:24.650Z,4.50
2018-07-20T22:36:53.667Z,4.53
2018-07-20T22:39:22.576Z,3.70
2018-07-20T22:41:51.597Z,4.67
2018-07-20T22:44:20.562Z,3.50
2018-07-20T22:46:49.653Z,3.53
2018-07-20T22:49:18.634Z,4.33
2018-07-20T22:51:47.696Z,4.13
2018-07-20T22:54:16.778Z,5.03
2018-07-20T22:56:45.820Z,4.20
2018-07-20T22:59:14.772Z,2.97
2018-07-20T23:01:43.727Z,4.53
2018-07-20T23:04:12.657Z,8.10
2018-07-20T23:06:47.090Z,6.17
2018-07-20T23:09:16.020Z,7.63
2018-07-20T23:11:44.966Z,6.70
2018-07-20T23:14:13.896Z,5.17
2018-07-20T23:16:42.870Z,4.63
2018-07-20T23:19:11.771Z,4.50
2018-07-20T23:21:40.732Z,4.00
2018-07-20T23:24:09.682Z,5.47
2018-07-20T23:26:38.596Z,5.43
2018-07-20T23:29:08.469Z,5.73
2018-07-20T23:31:37.412Z,4.43
2018-07-20T23:34:06.716Z,4.83
2018-07-20T23:36:35.711Z,4.50
2018-07-20T23:39:06.274Z,4.07
2018-07-20T23:41:35.440Z,8.90
2018-07-20T23:44:04.360Z,4.60
2018-07-20T23:46:33.299Z,5.87
2018-07-20T23:49:02.636Z,5.70
2018-07-20T23:51:31.688Z,7.53
2018-07-20T23:54:00.634Z,3.47
2018-07-20T23:56:29.596Z,6.30
2018-07-20T23:58:58.534Z,5.13
